sensor_id;sensor_type;location;lat;lon;timestamp;P1;durP1;ratioP1;P2;durP2;ratioP2
31808;SDS011;18379;48.208;-1.518;2023-03-02T00:04:56;36.17;;;32.87;;
31808;SDS011;18379;48.208;-1.518;2023-03-02T00:09:45;35.70;;;32.23;;
31808;SDS011;18379;48.208;-1.518;2023-03-02T00:14:46;36.40;;;33.03;;
31808;SDS011;18379;48.208;-1.518;2023-03-02T00:19:48;35.67;;;32.47;;
31808;SDS011;18379;48.208;-1.518;2023-03-02T00:25:08;33.17;;;30.57;;
31808;SDS011;18379;48.208;-1.518;2023-03-02T00:30:11;36.40;;;33.17;;
31808;SDS011;18379;48.208;-1.518;2023-03-02T00:35:13;35.30;;;32.30;;
31808;SDS011;18379;48.208;-1.518;2023-03-02T00:40:14;33.70;;;31.07;;
31808;SDS011;18379;48.208;-1.518;2023-03-02T00:45:15;35.27;;;31.90;;
31808;SDS011;18379;48.208;-1.518;2023-03-02T00:50:17;34.33;;;31.33;;
31808;SDS011;18379;48.208;-1.518;2023-03-02T00:55:18;34.27;;;31.17;;
31808;SDS011;18379;48.208;-1.518;2023-03-02T01:00:25;34.20;;;31.30;;
31808;SDS011;18379;48.208;-1.518;2023-03-02T01:05:29;32.93;;;29.87;;
31808;SDS011;18379;48.208;-1.518;2023-03-02T01:10:31;36.23;;;32.67;;
31808;SDS011;18379;48.208;-1.518;2023-03-02T01:15:36;35.23;;;32.03;;
31808;SDS011;18379;48.208;-1.518;2023-03-02T01:20:40;33.67;;;30.73;;
31808;SDS011;18379;48.208;-1.518;2023-03-02T01:25:43;33.77;;;30.77;;
31808;SDS011;18379;48.208;-1.518;2023-03-02T01:30:44;35.97;;;32.37;;
31808;SDS011;18379;48.208;-1.518;2023-03-02T01:35:47;35.03;;;31.90;;
31808;SDS011;18379;48.208;-1.518;2023-03-02T01:40:49;36.30;;;32.67;;
31808;SDS011;18379;48.208;-1.518;2023-03-02T01:45:58;36.43;;;32.97;;
31808;SDS011;18379;48.208;-1.518;2023-03-02T01:51:02;36.33;;;32.83;;
31808;SDS011;18379;48.208;-1.518;2023-03-02T01:56:10;34.30;;;31.20;;
31808;SDS011;18379;48.208;-1.518;2023-03-02T02:01:19;37.67;;;33.80;;
31808;SDS011;18379;48.208;-1.518;2023-03-02T02:11:34;35.20;;;31.60;;
31808;SDS011;18379;48.208;-1.518;2023-03-02T02:16:40;47.30;;;37.97;;
31808;SDS011;18379;48.208;-1.518;2023-03-02T02:21:48;52.37;;;42.03;;
31808;SDS011;18379;48.208;-1.518;2023-03-02T02:27:12;57.57;;;41.30;;
31808;SDS011;18379;48.208;-1.518;2023-03-02T02:37:32;37.23;;;33.47;;
31808;SDS011;18379;48.208;-1.518;2023-03-02T02:42:57;39.93;;;35.67;;
31808;SDS011;18379;48.208;-1.518;2023-03-02T02:48:02;36.63;;;33.07;;
31808;SDS011;18379;48.208;-1.518;2023-03-02T02:53:17;40.50;;;33.97;;
31808;SDS011;18379;48.208;-1.518;2023-03-02T02:58:30;56.80;;;45.30;;
31808;SDS011;18379;48.208;-1.518;2023-03-02T03:04:00;38.93;;;34.80;;
31808;SDS011;18379;48.208;-1.518;2023-03-02T03:09:07;38.67;;;34.53;;
31808;SDS011;18379;48.208;-1.518;2023-03-02T03:14:14;35.63;;;32.10;;
31808;SDS011;18379;48.208;-1.518;2023-03-02T03:19:25;44.07;;;35.97;;
31808;SDS011;18379;48.208;-1.518;2023-03-02T03:24:31;42.90;;;37.47;;
31808;SDS011;18379;48.208;-1.518;2023-03-02T03:29:39;36.13;;;32.33;;
31808;SDS011;18379;48.208;-1.518;2023-03-02T03:34:44;35.80;;;32.23;;
31808;SDS011;18379;48.208;-1.518;2023-03-02T03:39:46;38.10;;;33.80;;
31808;SDS011;18379;48.208;-1.518;2023-03-02T03:44:50;37.80;;;33.63;;
31808;SDS011;18379;48.208;-1.518;2023-03-02T03:50:24;43.40;;;36.00;;
31808;SDS011;18379;48.208;-1.518;2023-03-02T03:55:20;45.23;;;36.77;;
31808;SDS011;18379;48.208;-1.518;2023-03-02T04:00:21;41.03;;;35.07;;
31808;SDS011;18379;48.208;-1.518;2023-03-02T04:05:23;48.20;;;37.43;;
31808;SDS011;18379;48.208;-1.518;2023-03-02T04:10:27;46.77;;;37.23;;
31808;SDS011;18379;48.208;-1.518;2023-03-02T04:15:35;38.17;;;33.77;;
31808;SDS011;18379;48.208;-1.518;2023-03-02T04:20:44;43.60;;;33.17;;
31808;SDS011;18379;48.208;-1.518;2023-03-02T04:25:59;53.63;;;40.67;;
31808;SDS011;18379;48.208;-1.518;2023-03-02T04:31:04;45.97;;;37.00;;
31808;SDS011;18379;48.208;-1.518;2023-03-02T04:36:10;41.73;;;36.20;;
31808;SDS011;18379;48.208;-1.518;2023-03-02T04:41:11;44.43;;;36.10;;
31808;SDS011;18379;48.208;-1.518;2023-03-02T04:46:17;41.43;;;35.60;;
31808;SDS011;18379;48.208;-1.518;2023-03-02T04:51:25;46.50;;;37.63;;
31808;SDS011;18379;48.208;-1.518;2023-03-02T04:56:28;46.03;;;36.70;;
31808;SDS011;18379;48.208;-1.518;2023-03-02T05:01:29;53.53;;;39.23;;
31808;SDS011;18379;48.208;-1.518;2023-03-02T05:06:30;53.77;;;37.43;;
31808;SDS011;18379;48.208;-1.518;2023-03-02T05:11:32;51.37;;;39.37;;
31808;SDS011;18379;48.208;-1.518;2023-03-02T05:16:35;59.37;;;43.17;;
31808;SDS011;18379;48.208;-1.518;2023-03-02T05:21:37;41.77;;;35.10;;
31808;SDS011;18379;48.208;-1.518;2023-03-02T05:26:39;45.10;;;36.00;;
31808;SDS011;18379;48.208;-1.518;2023-03-02T05:31:41;45.60;;;35.57;;
31808;SDS011;18379;48.208;-1.518;2023-03-02T05:36:44;45.97;;;36.90;;
31808;SDS011;18379;48.208;-1.518;2023-03-02T05:41:45;52.30;;;37.87;;
31808;SDS011;18379;48.208;-1.518;2023-03-02T05:46:45;56.37;;;38.33;;
31808;SDS011;18379;48.208;-1.518;2023-03-02T05:51:48;58.87;;;41.23;;
31808;SDS011;18379;48.208;-1.518;2023-03-02T05:56:49;58.87;;;38.17;;
31808;SDS011;18379;48.208;-1.518;2023-03-02T06:01:50;59.97;;;41.13;;
31808;SDS011;18379;48.208;-1.518;2023-03-02T06:06:57;50.97;;;38.13;;
31808;SDS011;18379;48.208;-1.518;2023-03-02T06:11:59;45.37;;;35.10;;
31808;SDS011;18379;48.208;-1.518;2023-03-02T06:17:04;54.20;;;38.23;;
31808;SDS011;18379;48.208;-1.518;2023-03-02T06:22:05;54.50;;;37.03;;
31808;SDS011;18379;48.208;-1.518;2023-03-02T06:27:06;38.23;;;33.40;;
31808;SDS011;18379;48.208;-1.518;2023-03-02T06:32:06;53.53;;;38.87;;
31808;SDS011;18379;48.208;-1.518;2023-03-02T06:37:07;60.57;;;44.50;;
31808;SDS011;18379;48.208;-1.518;2023-03-02T06:42:08;51.70;;;38.47;;
31808;SDS011;18379;48.208;-1.518;2023-03-02T06:47:09;52.80;;;38.37;;
31808;SDS011;18379;48.208;-1.518;2023-03-02T06:52:10;60.63;;;41.63;;
31808;SDS011;18379;48.208;-1.518;2023-03-02T06:57:14;60.47;;;41.53;;
31808;SDS011;18379;48.208;-1.518;2023-03-02T07:02:15;64.83;;;42.07;;
31808;SDS011;18379;48.208;-1.518;2023-03-02T07:07:16;61.30;;;38.40;;
31808;SDS011;18379;48.208;-1.518;2023-03-02T07:12:17;52.40;;;39.90;;
31808;SDS011;18379;48.208;-1.518;2023-03-02T07:17:18;60.37;;;41.53;;
31808;SDS011;18379;48.208;-1.518;2023-03-02T07:22:19;57.57;;;41.50;;
31808;SDS011;18379;48.208;-1.518;2023-03-02T07:27:19;48.27;;;39.03;;
31808;SDS011;18379;48.208;-1.518;2023-03-02T07:32:20;50.13;;;38.97;;
31808;SDS011;18379;48.208;-1.518;2023-03-02T07:37:21;67.63;;;44.80;;
31808;SDS011;18379;48.208;-1.518;2023-03-02T07:42:22;71.27;;;44.97;;
31808;SDS011;18379;48.208;-1.518;2023-03-02T07:47:23;56.30;;;41.40;;
31808;SDS011;18379;48.208;-1.518;2023-03-02T07:52:24;54.43;;;41.67;;
31808;SDS011;18379;48.208;-1.518;2023-03-02T07:57:25;61.30;;;43.80;;
31808;SDS011;18379;48.208;-1.518;2023-03-02T08:02:25;53.33;;;42.23;;
31808;SDS011;18379;48.208;-1.518;2023-03-02T08:07:27;68.57;;;46.77;;
31808;SDS011;18379;48.208;-1.518;2023-03-02T08:12:28;73.83;;;48.47;;
31808;SDS011;18379;48.208;-1.518;2023-03-02T08:17:30;60.43;;;44.53;;
31808;SDS011;18379;48.208;-1.518;2023-03-02T08:22:31;77.73;;;51.27;;
31808;SDS011;18379;48.208;-1.518;2023-03-02T08:27:32;81.93;;;53.37;;
31808;SDS011;18379;48.208;-1.518;2023-03-02T08:32:33;75.10;;;50.47;;
31808;SDS011;18379;48.208;-1.518;2023-03-02T08:37:33;84.70;;;53.20;;
31808;SDS011;18379;48.208;-1.518;2023-03-02T08:42:34;76.40;;;51.87;;
31808;SDS011;18379;48.208;-1.518;2023-03-02T08:47:35;75.70;;;54.07;;
31808;SDS011;18379;48.208;-1.518;2023-03-02T08:52:36;66.57;;;49.53;;
31808;SDS011;18379;48.208;-1.518;2023-03-02T08:57:37;69.20;;;53.03;;
31808;SDS011;18379;48.208;-1.518;2023-03-02T09:02:40;60.63;;;51.47;;
31808;SDS011;18379;48.208;-1.518;2023-03-02T09:07:43;60.37;;;49.93;;
31808;SDS011;18379;48.208;-1.518;2023-03-02T09:12:43;59.27;;;49.60;;
31808;SDS011;18379;48.208;-1.518;2023-03-02T09:17:44;69.60;;;55.37;;
31808;SDS011;18379;48.208;-1.518;2023-03-02T09:22:45;64.10;;;52.37;;
31808;SDS011;18379;48.208;-1.518;2023-03-02T09:27:49;60.70;;;50.43;;
31808;SDS011;18379;48.208;-1.518;2023-03-02T09:32:50;57.13;;;49.27;;
31808;SDS011;18379;48.208;-1.518;2023-03-02T09:37:51;49.40;;;44.83;;
31808;SDS011;18379;48.208;-1.518;2023-03-02T10:04:49;59.50;;;52.93;;
31808;SDS011;18379;48.208;-1.518;2023-03-02T10:09:54;56.50;;;50.30;;
31808;SDS011;18379;48.208;-1.518;2023-03-02T10:20:26;55.57;;;49.67;;
31808;SDS011;18379;48.208;-1.518;2023-03-02T10:25:42;64.10;;;56.73;;
31808;SDS011;18379;48.208;-1.518;2023-03-02T10:30:49;60.70;;;54.20;;
31808;SDS011;18379;48.208;-1.518;2023-03-02T10:36:25;62.60;;;55.90;;
31808;SDS011;18379;48.208;-1.518;2023-03-02T10:41:31;57.50;;;51.63;;
31808;SDS011;18379;48.208;-1.518;2023-03-02T10:46:39;62.20;;;55.77;;
31808;SDS011;18379;48.208;-1.518;2023-03-02T10:51:43;61.53;;;54.93;;
31808;SDS011;18379;48.208;-1.518;2023-03-02T10:56:47;61.93;;;55.37;;
31808;SDS011;18379;48.208;-1.518;2023-03-02T11:07:17;65.50;;;58.57;;
31808;SDS011;18379;48.208;-1.518;2023-03-02T11:12:19;53.57;;;48.73;;
31808;SDS011;18379;48.208;-1.518;2023-03-02T11:17:38;59.77;;;53.93;;
31808;SDS011;18379;48.208;-1.518;2023-03-02T11:22:46;62.77;;;56.50;;
31808;SDS011;18379;48.208;-1.518;2023-03-02T11:33:57;61.70;;;55.37;;
31808;SDS011;18379;48.208;-1.518;2023-03-02T11:39:35;66.80;;;59.47;;
31808;SDS011;18379;48.208;-1.518;2023-03-02T11:44:47;64.23;;;57.40;;
31808;SDS011;18379;48.208;-1.518;2023-03-02T11:49:51;60.07;;;54.30;;
31808;SDS011;18379;48.208;-1.518;2023-03-02T11:55:02;60.17;;;54.37;;
31808;SDS011;18379;48.208;-1.518;2023-03-02T12:00:41;62.67;;;56.63;;
31808;SDS011;18379;48.208;-1.518;2023-03-02T12:05:45;114.97;;;76.60;;
31808;SDS011;18379;48.208;-1.518;2023-03-02T12:16:17;73.37;;;65.67;;
31808;SDS011;18379;48.208;-1.518;2023-03-02T12:21:19;63.73;;;57.67;;
31808;SDS011;18379;48.208;-1.518;2023-03-02T12:26:24;66.50;;;59.97;;
31808;SDS011;18379;48.208;-1.518;2023-03-02T12:31:44;65.60;;;59.13;;
31808;SDS011;18379;48.208;-1.518;2023-03-02T12:36:47;67.97;;;61.33;;
31808;SDS011;18379;48.208;-1.518;2023-03-02T12:41:55;66.73;;;60.03;;
31808;SDS011;18379;48.208;-1.518;2023-03-02T12:47:19;69.37;;;62.37;;
31808;SDS011;18379;48.208;-1.518;2023-03-02T12:52:27;59.67;;;53.87;;
31808;SDS011;18379;48.208;-1.518;2023-03-02T12:57:45;72.00;;;64.33;;
31808;SDS011;18379;48.208;-1.518;2023-03-02T13:02:48;104.70;;;82.60;;
31808;SDS011;18379;48.208;-1.518;2023-03-02T13:12:55;69.17;;;62.00;;
31808;SDS011;18379;48.208;-1.518;2023-03-02T13:17:58;70.10;;;62.57;;
31808;SDS011;18379;48.208;-1.518;2023-03-02T13:22:59;66.83;;;60.43;;
31808;SDS011;18379;48.208;-1.518;2023-03-02T13:28:00;68.33;;;61.70;;
31808;SDS011;18379;48.208;-1.518;2023-03-02T13:33:18;70.17;;;62.97;;
31808;SDS011;18379;48.208;-1.518;2023-03-02T13:38:22;67.13;;;60.77;;
31808;SDS011;18379;48.208;-1.518;2023-03-02T13:43:36;66.63;;;60.23;;
31808;SDS011;18379;48.208;-1.518;2023-03-02T13:48:38;71.90;;;64.93;;
31808;SDS011;18379;48.208;-1.518;2023-03-02T13:53:39;69.97;;;63.27;;
31808;SDS011;18379;48.208;-1.518;2023-03-02T13:58:53;68.87;;;62.27;;
31808;SDS011;18379;48.208;-1.518;2023-03-02T14:03:54;67.40;;;61.00;;
31808;SDS011;18379;48.208;-1.518;2023-03-02T14:08:54;68.20;;;61.77;;
31808;SDS011;18379;48.208;-1.518;2023-03-02T14:13:55;66.70;;;60.87;;
31808;SDS011;18379;48.208;-1.518;2023-03-02T14:18:56;69.27;;;62.67;;
31808;SDS011;18379;48.208;-1.518;2023-03-02T14:23:57;70.87;;;64.17;;
31808;SDS011;18379;48.208;-1.518;2023-03-02T14:28:59;73.73;;;65.73;;
31808;SDS011;18379;48.208;-1.518;2023-03-02T14:34:01;68.57;;;61.80;;
31808;SDS011;18379;48.208;-1.518;2023-03-02T14:39:02;68.50;;;62.30;;
31808;SDS011;18379;48.208;-1.518;2023-03-02T14:44:18;90.83;;;72.80;;
31808;SDS011;18379;48.208;-1.518;2023-03-02T14:49:19;73.07;;;66.13;;
31808;SDS011;18379;48.208;-1.518;2023-03-02T14:54:20;69.73;;;63.37;;
31808;SDS011;18379;48.208;-1.518;2023-03-02T14:59:21;83.47;;;74.67;;
31808;SDS011;18379;48.208;-1.518;2023-03-02T15:04:22;74.40;;;67.07;;
31808;SDS011;18379;48.208;-1.518;2023-03-02T15:09:23;66.87;;;60.57;;
31808;SDS011;18379;48.208;-1.518;2023-03-02T15:14:23;71.87;;;64.70;;
31808;SDS011;18379;48.208;-1.518;2023-03-02T15:19:24;75.40;;;67.20;;
31808;SDS011;18379;48.208;-1.518;2023-03-02T15:24:25;72.37;;;65.03;;
31808;SDS011;18379;48.208;-1.518;2023-03-02T15:29:26;70.97;;;63.90;;
31808;SDS011;18379;48.208;-1.518;2023-03-02T15:34:26;80.23;;;72.33;;
31808;SDS011;18379;48.208;-1.518;2023-03-02T15:39:27;83.97;;;74.97;;
31808;SDS011;18379;48.208;-1.518;2023-03-02T15:44:28;74.23;;;66.90;;
31808;SDS011;18379;48.208;-1.518;2023-03-02T15:49:29;71.87;;;64.97;;
31808;SDS011;18379;48.208;-1.518;2023-03-02T15:54:31;73.90;;;66.40;;
31808;SDS011;18379;48.208;-1.518;2023-03-02T15:59:32;73.80;;;66.57;;
31808;SDS011;18379;48.208;-1.518;2023-03-02T16:04:33;74.87;;;67.07;;
31808;SDS011;18379;48.208;-1.518;2023-03-02T16:09:34;77.13;;;69.23;;
31808;SDS011;18379;48.208;-1.518;2023-03-02T16:14:35;71.63;;;64.63;;
31808;SDS011;18379;48.208;-1.518;2023-03-02T16:19:36;70.53;;;63.43;;
31808;SDS011;18379;48.208;-1.518;2023-03-02T16:24:37;75.50;;;68.10;;
31808;SDS011;18379;48.208;-1.518;2023-03-02T16:29:38;72.30;;;65.27;;
31808;SDS011;18379;48.208;-1.518;2023-03-02T16:34:38;75.83;;;68.17;;
31808;SDS011;18379;48.208;-1.518;2023-03-02T16:39:39;76.63;;;68.87;;
31808;SDS011;18379;48.208;-1.518;2023-03-02T16:44:40;74.30;;;66.77;;
31808;SDS011;18379;48.208;-1.518;2023-03-02T16:49:43;67.30;;;61.00;;
31808;SDS011;18379;48.208;-1.518;2023-03-02T16:54:44;72.63;;;65.70;;
31808;SDS011;18379;48.208;-1.518;2023-03-02T16:59:45;67.63;;;61.30;;
31808;SDS011;18379;48.208;-1.518;2023-03-02T17:04:45;68.33;;;62.00;;
31808;SDS011;18379;48.208;-1.518;2023-03-02T17:09:46;66.63;;;59.73;;
31808;SDS011;18379;48.208;-1.518;2023-03-02T17:14:47;66.60;;;59.60;;
31808;SDS011;18379;48.208;-1.518;2023-03-02T17:19:48;64.30;;;58.10;;
31808;SDS011;18379;48.208;-1.518;2023-03-02T17:24:48;85.33;;;67.33;;
31808;SDS011;18379;48.208;-1.518;2023-03-02T17:29:50;84.20;;;60.20;;
31808;SDS011;18379;48.208;-1.518;2023-03-02T17:34:51;69.10;;;58.80;;
31808;SDS011;18379;48.208;-1.518;2023-03-02T17:39:51;61.40;;;55.03;;
31808;SDS011;18379;48.208;-1.518;2023-03-02T17:44:52;58.93;;;53.27;;
31808;SDS011;18379;48.208;-1.518;2023-03-02T17:49:53;55.93;;;50.87;;
31808;SDS011;18379;48.208;-1.518;2023-03-02T17:54:55;55.70;;;50.60;;
31808;SDS011;18379;48.208;-1.518;2023-03-02T17:59:56;54.03;;;49.00;;
31808;SDS011;18379;48.208;-1.518;2023-03-02T18:04:57;53.60;;;49.07;;
31808;SDS011;18379;48.208;-1.518;2023-03-02T18:09:58;57.03;;;51.67;;
31808;SDS011;18379;48.208;-1.518;2023-03-02T18:14:59;58.47;;;52.57;;
31808;SDS011;18379;48.208;-1.518;2023-03-02T18:20:00;60.90;;;54.73;;
31808;SDS011;18379;48.208;-1.518;2023-03-02T18:25:01;65.93;;;56.50;;
31808;SDS011;18379;48.208;-1.518;2023-03-02T18:30:02;62.30;;;55.83;;
31808;SDS011;18379;48.208;-1.518;2023-03-02T18:35:03;62.03;;;55.83;;
31808;SDS011;18379;48.208;-1.518;2023-03-02T18:40:05;63.10;;;56.70;;
31808;SDS011;18379;48.208;-1.518;2023-03-02T18:45:07;61.43;;;55.10;;
31808;SDS011;18379;48.208;-1.518;2023-03-02T18:50:09;60.93;;;54.53;;
31808;SDS011;18379;48.208;-1.518;2023-03-02T18:55:11;64.57;;;57.77;;
31808;SDS011;18379;48.208;-1.518;2023-03-02T19:00:16;63.33;;;56.53;;
31808;SDS011;18379;48.208;-1.518;2023-03-02T19:05:20;60.27;;;53.63;;
31808;SDS011;18379;48.208;-1.518;2023-03-02T19:10:23;59.40;;;53.13;;
31808;SDS011;18379;48.208;-1.518;2023-03-02T19:15:24;59.60;;;51.77;;
31808;SDS011;18379;48.208;-1.518;2023-03-02T19:20:25;59.30;;;53.13;;
31808;SDS011;18379;48.208;-1.518;2023-03-02T19:25:26;58.10;;;51.83;;
31808;SDS011;18379;48.208;-1.518;2023-03-02T19:30:28;59.43;;;52.70;;
31808;SDS011;18379;48.208;-1.518;2023-03-02T19:35:29;76.30;;;57.53;;
31808;SDS011;18379;48.208;-1.518;2023-03-02T19:40:33;64.67;;;54.43;;
31808;SDS011;18379;48.208;-1.518;2023-03-02T19:45:34;65.73;;;55.40;;
31808;SDS011;18379;48.208;-1.518;2023-03-02T19:50:37;85.03;;;67.23;;
31808;SDS011;18379;48.208;-1.518;2023-03-02T19:55:37;99.93;;;72.20;;
31808;SDS011;18379;48.208;-1.518;2023-03-02T20:00:45;75.50;;;59.63;;
31808;SDS011;18379;48.208;-1.518;2023-03-02T20:05:46;71.73;;;58.60;;
31808;SDS011;18379;48.208;-1.518;2023-03-02T20:10:47;82.67;;;65.60;;
31808;SDS011;18379;48.208;-1.518;2023-03-02T20:15:50;68.73;;;54.67;;
31808;SDS011;18379;48.208;-1.518;2023-03-02T20:20:52;68.97;;;55.27;;
31808;SDS011;18379;48.208;-1.518;2023-03-02T20:25:53;77.87;;;58.70;;
31808;SDS011;18379;48.208;-1.518;2023-03-02T20:30:55;64.10;;;51.10;;
31808;SDS011;18379;48.208;-1.518;2023-03-02T20:35:58;62.03;;;51.73;;
31808;SDS011;18379;48.208;-1.518;2023-03-02T20:41:01;71.13;;;53.53;;
31808;SDS011;18379;48.208;-1.518;2023-03-02T20:46:05;78.63;;;57.53;;
31808;SDS011;18379;48.208;-1.518;2023-03-02T20:51:06;70.57;;;54.77;;
31808;SDS011;18379;48.208;-1.518;2023-03-02T20:56:07;69.63;;;55.20;;
31808;SDS011;18379;48.208;-1.518;2023-03-02T21:01:10;72.57;;;55.43;;
31808;SDS011;18379;48.208;-1.518;2023-03-02T21:06:12;66.40;;;55.80;;
31808;SDS011;18379;48.208;-1.518;2023-03-02T21:11:15;69.97;;;55.47;;
31808;SDS011;18379;48.208;-1.518;2023-03-02T21:16:20;63.37;;;51.87;;
31808;SDS011;18379;48.208;-1.518;2023-03-02T21:21:24;59.63;;;50.03;;
31808;SDS011;18379;48.208;-1.518;2023-03-02T21:26:26;63.87;;;50.97;;
31808;SDS011;18379;48.208;-1.518;2023-03-02T21:31:27;69.40;;;55.90;;
31808;SDS011;18379;48.208;-1.518;2023-03-02T21:36:28;62.07;;;50.83;;
31808;SDS011;18379;48.208;-1.518;2023-03-02T21:41:29;72.40;;;58.50;;
31808;SDS011;18379;48.208;-1.518;2023-03-02T21:46:31;71.40;;;52.60;;
31808;SDS011;18379;48.208;-1.518;2023-03-02T21:51:33;82.80;;;61.47;;
31808;SDS011;18379;48.208;-1.518;2023-03-02T21:56:34;76.90;;;57.37;;
31808;SDS011;18379;48.208;-1.518;2023-03-02T22:01:35;61.43;;;52.40;;
31808;SDS011;18379;48.208;-1.518;2023-03-02T22:06:36;64.43;;;54.80;;
31808;SDS011;18379;48.208;-1.518;2023-03-02T22:11:37;72.40;;;54.60;;
31808;SDS011;18379;48.208;-1.518;2023-03-02T22:16:38;69.60;;;56.27;;
31808;SDS011;18379;48.208;-1.518;2023-03-02T22:21:43;72.60;;;53.70;;
31808;SDS011;18379;48.208;-1.518;2023-03-02T22:26:58;69.57;;;53.30;;
31808;SDS011;18379;48.208;-1.518;2023-03-02T22:32:19;72.27;;;52.97;;
31808;SDS011;18379;48.208;-1.518;2023-03-02T22:37:29;58.50;;;48.50;;
31808;SDS011;18379;48.208;-1.518;2023-03-02T22:42:32;67.07;;;53.13;;
31808;SDS011;18379;48.208;-1.518;2023-03-02T22:47:33;87.60;;;57.67;;
31808;SDS011;18379;48.208;-1.518;2023-03-02T22:52:35;74.60;;;54.87;;
31808;SDS011;18379;48.208;-1.518;2023-03-02T22:57:38;94.77;;;60.63;;
31808;SDS011;18379;48.208;-1.518;2023-03-02T23:02:43;79.07;;;56.33;;
31808;SDS011;18379;48.208;-1.518;2023-03-02T23:07:44;91.30;;;58.70;;
31808;SDS011;18379;48.208;-1.518;2023-03-02T23:12:45;77.03;;;56.40;;
31808;SDS011;18379;48.208;-1.518;2023-03-02T23:17:46;101.83;;;62.90;;
31808;SDS011;18379;48.208;-1.518;2023-03-02T23:22:47;94.93;;;61.60;;
31808;SDS011;18379;48.208;-1.518;2023-03-02T23:27:49;94.50;;;65.00;;
31808;SDS011;18379;48.208;-1.518;2023-03-02T23:32:50;73.50;;;53.67;;
31808;SDS011;18379;48.208;-1.518;2023-03-02T23:37:51;58.43;;;48.50;;
31808;SDS011;18379;48.208;-1.518;2023-03-02T23:42:52;75.43;;;52.57;;
31808;SDS011;18379;48.208;-1.518;2023-03-02T23:47:53;84.07;;;58.03;;
31808;SDS011;18379;48.208;-1.518;2023-03-02T23:52:54;76.17;;;52.50;;
31808;SDS011;18379;48.208;-1.518;2023-03-02T23:57:54;75.90;;;51.90;;
